Main page
METAR-TAF:

METAR-TAF

Airports :

Morón Air Base

Morón de la Frontera, Spain

latitude: 37-09N, longitude: 005-37W, elevation: 87 m

Current weather observation

The report was made 54 minutes ago, at 01:00 UTC
Wind 8 kt from the Southwest, varying between South/Southwest and West
Temperature 12°C
Humidity 94%
Pressure 1013 hPa
Visibility 10 km or more
Few clouds at a height of 4100 ft

METAR: LEMO 200100Z 23008KT 210V270 9999 FEW041 12/11 Q1013 NOSIG

Time: 02:54 (01:54 UTC)

Forecast

The report was made 2 hours and 54 minutes ago, at 23:00 UTC
Forecast valid from 20 at 00 UTC to 20 at 09 UTC
Wind 9 kt from the Southwest
Visibility 10 km or more
Few clouds at a height of 1500 ft
Probability 40% :
Temporary
from 20 at 00 UTC to 20 at 09 UTC
Visibility: 4000 m
Broken clouds at a height of 900 ft
rain, mist

TAF: LEMO 192300Z 2000/2009 22009KT 9999 FEW015 PROB40 TEMPO 2000/2009 4000 RA BR BKN009

Weather observations and forecasts of more than 4000 airports (METAR and TAF reports).

The available stations are represented by yellow and red dots on the map.

Hover mouse over dot to see the name of the station.

Then click to see weather observations and forecasts.

To change the map : click on the green buttons with a black cross to zoom in, on the green button with a dash to zoom out, or on the green arrows for adjacent maps.


METAR-TAF: